sensor_id;sensor_type;location;lat;lon;timestamp;P1;durP1;ratioP1;P2;durP2;ratioP2
18899;SDS011;9582;52.018;6.306;2023-05-14T00:01:46;16.85;;;13.68;;
18899;SDS011;9582;52.018;6.306;2023-05-14T00:04:13;17.15;;;14.88;;
18899;SDS011;9582;52.018;6.306;2023-05-14T00:06:40;15.20;;;13.60;;
18899;SDS011;9582;52.018;6.306;2023-05-14T00:09:07;16.90;;;13.75;;
18899;SDS011;9582;52.018;6.306;2023-05-14T00:11:33;15.45;;;13.85;;
18899;SDS011;9582;52.018;6.306;2023-05-14T00:14:00;16.35;;;13.65;;
18899;SDS011;9582;52.018;6.306;2023-05-14T00:16:26;16.67;;;14.35;;
18899;SDS011;9582;52.018;6.306;2023-05-14T00:18:53;16.92;;;15.30;;
18899;SDS011;9582;52.018;6.306;2023-05-14T00:21:19;16.73;;;14.38;;
18899;SDS011;9582;52.018;6.306;2023-05-14T00:23:48;17.00;;;15.25;;
18899;SDS011;9582;52.018;6.306;2023-05-14T00:26:14;17.50;;;15.77;;
18899;SDS011;9582;52.018;6.306;2023-05-14T00:28:43;20.83;;;14.85;;
18899;SDS011;9582;52.018;6.306;2023-05-14T00:31:10;16.55;;;14.55;;
18899;SDS011;9582;52.018;6.306;2023-05-14T00:33:36;17.85;;;15.98;;
18899;SDS011;9582;52.018;6.306;2023-05-14T00:36:03;17.00;;;15.25;;
18899;SDS011;9582;52.018;6.306;2023-05-14T00:38:29;19.05;;;17.05;;
18899;SDS011;9582;52.018;6.306;2023-05-14T00:40:57;18.50;;;16.55;;
18899;SDS011;9582;52.018;6.306;2023-05-14T00:43:24;18.02;;;16.27;;
18899;SDS011;9582;52.018;6.306;2023-05-14T00:45:51;18.20;;;16.42;;
18899;SDS011;9582;52.018;6.306;2023-05-14T00:48:19;17.80;;;16.00;;
18899;SDS011;9582;52.018;6.306;2023-05-14T00:50:46;19.58;;;16.77;;
18899;SDS011;9582;52.018;6.306;2023-05-14T00:53:14;19.92;;;17.10;;
18899;SDS011;9582;52.018;6.306;2023-05-14T00:55:41;21.58;;;17.75;;
18899;SDS011;9582;52.018;6.306;2023-05-14T00:58:10;19.40;;;17.00;;
18899;SDS011;9582;52.018;6.306;2023-05-14T01:00:39;18.55;;;16.58;;
18899;SDS011;9582;52.018;6.306;2023-05-14T01:03:06;17.92;;;16.17;;
18899;SDS011;9582;52.018;6.306;2023-05-14T01:05:35;18.48;;;16.65;;
18899;SDS011;9582;52.018;6.306;2023-05-14T01:08:12;18.47;;;16.67;;
18899;SDS011;9582;52.018;6.306;2023-05-14T01:10:49;19.07;;;16.93;;
18899;SDS011;9582;52.018;6.306;2023-05-14T01:13:21;20.80;;;17.40;;
18899;SDS011;9582;52.018;6.306;2023-05-14T01:15:53;19.77;;;17.55;;
18899;SDS011;9582;52.018;6.306;2023-05-14T01:18:21;19.55;;;17.52;;
18899;SDS011;9582;52.018;6.306;2023-05-14T01:20:49;19.27;;;17.23;;
18899;SDS011;9582;52.018;6.306;2023-05-14T01:23:18;19.40;;;17.20;;
18899;SDS011;9582;52.018;6.306;2023-05-14T01:25:44;20.63;;;16.80;;
18899;SDS011;9582;52.018;6.306;2023-05-14T01:28:12;18.33;;;16.40;;
18899;SDS011;9582;52.018;6.306;2023-05-14T01:30:44;20.37;;;18.27;;
18899;SDS011;9582;52.018;6.306;2023-05-14T01:33:15;21.10;;;18.83;;
18899;SDS011;9582;52.018;6.306;2023-05-14T01:35:43;19.95;;;17.90;;
18899;SDS011;9582;52.018;6.306;2023-05-14T01:38:10;19.27;;;17.13;;
18899;SDS011;9582;52.018;6.306;2023-05-14T01:40:40;21.90;;;18.58;;
18899;SDS011;9582;52.018;6.306;2023-05-14T01:43:07;20.80;;;18.60;;
18899;SDS011;9582;52.018;6.306;2023-05-14T01:45:34;21.53;;;18.80;;
18899;SDS011;9582;52.018;6.306;2023-05-14T01:48:02;19.77;;;17.67;;
18899;SDS011;9582;52.018;6.306;2023-05-14T01:50:29;23.63;;;17.77;;
18899;SDS011;9582;52.018;6.306;2023-05-14T01:52:56;21.10;;;18.87;;
18899;SDS011;9582;52.018;6.306;2023-05-14T01:55:22;21.27;;;18.23;;
18899;SDS011;9582;52.018;6.306;2023-05-14T01:57:50;20.57;;;18.40;;
18899;SDS011;9582;52.018;6.306;2023-05-14T02:00:17;20.80;;;18.67;;
18899;SDS011;9582;52.018;6.306;2023-05-14T02:02:44;21.20;;;18.90;;
18899;SDS011;9582;52.018;6.306;2023-05-14T02:05:11;22.33;;;18.67;;
18899;SDS011;9582;52.018;6.306;2023-05-14T02:07:43;21.17;;;18.90;;
18899;SDS011;9582;52.018;6.306;2023-05-14T02:10:10;21.33;;;19.07;;
18899;SDS011;9582;52.018;6.306;2023-05-14T02:12:36;24.87;;;19.63;;
18899;SDS011;9582;52.018;6.306;2023-05-14T02:15:05;20.97;;;18.20;;
18899;SDS011;9582;52.018;6.306;2023-05-14T02:17:34;22.90;;;18.57;;
18899;SDS011;9582;52.018;6.306;2023-05-14T02:20:00;23.63;;;19.50;;
18899;SDS011;9582;52.018;6.306;2023-05-14T02:22:27;25.13;;;19.07;;
18899;SDS011;9582;52.018;6.306;2023-05-14T02:24:54;23.13;;;19.60;;
18899;SDS011;9582;52.018;6.306;2023-05-14T02:27:20;21.63;;;19.33;;
18899;SDS011;9582;52.018;6.306;2023-05-14T02:29:47;23.50;;;20.83;;
18899;SDS011;9582;52.018;6.306;2023-05-14T02:32:15;23.00;;;20.50;;
18899;SDS011;9582;52.018;6.306;2023-05-14T02:34:41;26.30;;;19.43;;
18899;SDS011;9582;52.018;6.306;2023-05-14T02:37:08;23.30;;;20.33;;
18899;SDS011;9582;52.018;6.306;2023-05-14T02:39:34;22.90;;;20.50;;
18899;SDS011;9582;52.018;6.306;2023-05-14T02:42:00;22.53;;;19.67;;
18899;SDS011;9582;52.018;6.306;2023-05-14T02:44:27;23.97;;;20.37;;
18899;SDS011;9582;52.018;6.306;2023-05-14T02:46:55;21.93;;;19.63;;
18899;SDS011;9582;52.018;6.306;2023-05-14T02:49:23;25.87;;;20.20;;
18899;SDS011;9582;52.018;6.306;2023-05-14T02:51:50;25.07;;;20.77;;
18899;SDS011;9582;52.018;6.306;2023-05-14T02:54:18;29.03;;;20.73;;
18899;SDS011;9582;52.018;6.306;2023-05-14T02:56:44;24.03;;;20.03;;
18899;SDS011;9582;52.018;6.306;2023-05-14T02:59:11;23.87;;;21.00;;
18899;SDS011;9582;52.018;6.306;2023-05-14T03:01:37;25.93;;;21.10;;
18899;SDS011;9582;52.018;6.306;2023-05-14T03:04:04;25.80;;;21.07;;
18899;SDS011;9582;52.018;6.306;2023-05-14T03:06:33;23.67;;;20.47;;
18899;SDS011;9582;52.018;6.306;2023-05-14T03:08:59;24.70;;;19.50;;
18899;SDS011;9582;52.018;6.306;2023-05-14T03:11:26;26.70;;;20.03;;
18899;SDS011;9582;52.018;6.306;2023-05-14T03:13:53;24.27;;;20.93;;
18899;SDS011;9582;52.018;6.306;2023-05-14T03:16:19;27.80;;;21.13;;
18899;SDS011;9582;52.018;6.306;2023-05-14T03:18:46;26.53;;;21.33;;
18899;SDS011;9582;52.018;6.306;2023-05-14T03:21:12;27.13;;;21.33;;
18899;SDS011;9582;52.018;6.306;2023-05-14T03:23:40;24.40;;;20.50;;
18899;SDS011;9582;52.018;6.306;2023-05-14T03:26:06;23.87;;;20.10;;
18899;SDS011;9582;52.018;6.306;2023-05-14T03:28:33;23.60;;;20.67;;
18899;SDS011;9582;52.018;6.306;2023-05-14T03:30:59;29.17;;;19.93;;
18899;SDS011;9582;52.018;6.306;2023-05-14T03:33:26;23.57;;;20.67;;
18899;SDS011;9582;52.018;6.306;2023-05-14T03:35:53;25.20;;;21.03;;
18899;SDS011;9582;52.018;6.306;2023-05-14T03:38:19;24.63;;;19.60;;
18899;SDS011;9582;52.018;6.306;2023-05-14T03:40:47;30.10;;;20.73;;
18899;SDS011;9582;52.018;6.306;2023-05-14T03:43:14;25.27;;;20.30;;
18899;SDS011;9582;52.018;6.306;2023-05-14T03:45:41;26.27;;;20.80;;
18899;SDS011;9582;52.018;6.306;2023-05-14T03:48:07;25.50;;;20.80;;
18899;SDS011;9582;52.018;6.306;2023-05-14T03:50:35;27.10;;;20.63;;
18899;SDS011;9582;52.018;6.306;2023-05-14T03:53:02;25.50;;;22.03;;
18899;SDS011;9582;52.018;6.306;2023-05-14T03:55:28;28.90;;;20.77;;
18899;SDS011;9582;52.018;6.306;2023-05-14T03:57:56;24.50;;;20.33;;
18899;SDS011;9582;52.018;6.306;2023-05-14T04:00:23;30.23;;;21.33;;
18899;SDS011;9582;52.018;6.306;2023-05-14T04:02:51;26.47;;;21.97;;
18899;SDS011;9582;52.018;6.306;2023-05-14T04:05:17;29.80;;;21.87;;
18899;SDS011;9582;52.018;6.306;2023-05-14T04:07:44;26.53;;;21.30;;
18899;SDS011;9582;52.018;6.306;2023-05-14T04:10:11;24.40;;;21.27;;
18899;SDS011;9582;52.018;6.306;2023-05-14T04:12:38;24.80;;;21.30;;
18899;SDS011;9582;52.018;6.306;2023-05-14T04:15:06;27.10;;;21.33;;
18899;SDS011;9582;52.018;6.306;2023-05-14T04:17:34;28.83;;;21.80;;
18899;SDS011;9582;52.018;6.306;2023-05-14T04:20:00;24.10;;;20.57;;
18899;SDS011;9582;52.018;6.306;2023-05-14T04:22:27;28.67;;;22.07;;
18899;SDS011;9582;52.018;6.306;2023-05-14T04:24:53;27.10;;;21.00;;
18899;SDS011;9582;52.018;6.306;2023-05-14T04:27:20;28.47;;;21.70;;
18899;SDS011;9582;52.018;6.306;2023-05-14T04:29:47;24.90;;;21.60;;
18899;SDS011;9582;52.018;6.306;2023-05-14T04:32:15;30.40;;;22.87;;
18899;SDS011;9582;52.018;6.306;2023-05-14T04:34:41;27.37;;;21.90;;
18899;SDS011;9582;52.018;6.306;2023-05-14T04:37:08;26.90;;;21.60;;
18899;SDS011;9582;52.018;6.306;2023-05-14T04:39:34;31.30;;;23.73;;
18899;SDS011;9582;52.018;6.306;2023-05-14T04:42:02;26.83;;;21.87;;
18899;SDS011;9582;52.018;6.306;2023-05-14T04:44:28;25.93;;;22.57;;
18899;SDS011;9582;52.018;6.306;2023-05-14T04:46:55;27.57;;;23.30;;
18899;SDS011;9582;52.018;6.306;2023-05-14T04:49:23;30.10;;;21.83;;
18899;SDS011;9582;52.018;6.306;2023-05-14T04:51:49;27.37;;;22.47;;
18899;SDS011;9582;52.018;6.306;2023-05-14T04:54:16;29.27;;;23.23;;
18899;SDS011;9582;52.018;6.306;2023-05-14T04:56:43;26.47;;;21.83;;
18899;SDS011;9582;52.018;6.306;2023-05-14T04:59:09;28.47;;;22.10;;
18899;SDS011;9582;52.018;6.306;2023-05-14T05:01:36;35.17;;;22.67;;
18899;SDS011;9582;52.018;6.306;2023-05-14T05:04:02;31.20;;;23.33;;
18899;SDS011;9582;52.018;6.306;2023-05-14T05:06:30;26.67;;;22.03;;
18899;SDS011;9582;52.018;6.306;2023-05-14T05:08:57;26.77;;;21.93;;
18899;SDS011;9582;52.018;6.306;2023-05-14T05:11:23;27.97;;;22.60;;
18899;SDS011;9582;52.018;6.306;2023-05-14T05:13:50;27.53;;;21.90;;
18899;SDS011;9582;52.018;6.306;2023-05-14T05:16:16;26.33;;;23.03;;
18899;SDS011;9582;52.018;6.306;2023-05-14T05:18:43;27.63;;;22.47;;
18899;SDS011;9582;52.018;6.306;2023-05-14T05:21:09;28.37;;;23.60;;
18899;SDS011;9582;52.018;6.306;2023-05-14T05:23:37;29.53;;;23.10;;
18899;SDS011;9582;52.018;6.306;2023-05-14T05:26:04;31.57;;;22.50;;
18899;SDS011;9582;52.018;6.306;2023-05-14T05:28:30;26.37;;;20.27;;
18899;SDS011;9582;52.018;6.306;2023-05-14T05:30:57;26.70;;;22.00;;
18899;SDS011;9582;52.018;6.306;2023-05-14T05:33:23;26.73;;;22.03;;
18899;SDS011;9582;52.018;6.306;2023-05-14T05:35:50;25.43;;;20.97;;
18899;SDS011;9582;52.018;6.306;2023-05-14T05:38:17;23.80;;;19.70;;
18899;SDS011;9582;52.018;6.306;2023-05-14T05:40:44;23.67;;;18.90;;
18899;SDS011;9582;52.018;6.306;2023-05-14T05:43:11;25.33;;;19.80;;
18899;SDS011;9582;52.018;6.306;2023-05-14T05:45:38;23.20;;;19.43;;
18899;SDS011;9582;52.018;6.306;2023-05-14T05:48:05;22.70;;;19.07;;
18899;SDS011;9582;52.018;6.306;2023-05-14T05:50:31;23.20;;;19.73;;
18899;SDS011;9582;52.018;6.306;2023-05-14T05:52:58;23.03;;;20.03;;
18899;SDS011;9582;52.018;6.306;2023-05-14T05:55:24;23.30;;;19.20;;
18899;SDS011;9582;52.018;6.306;2023-05-14T05:57:52;24.33;;;20.20;;
18899;SDS011;9582;52.018;6.306;2023-05-14T06:00:19;26.10;;;20.07;;
18899;SDS011;9582;52.018;6.306;2023-05-14T06:02:45;21.55;;;19.27;;
18899;SDS011;9582;52.018;6.306;2023-05-14T06:05:12;23.25;;;19.13;;
18899;SDS011;9582;52.018;6.306;2023-05-14T06:07:38;21.35;;;18.95;;
18899;SDS011;9582;52.018;6.306;2023-05-14T06:10:06;25.42;;;19.75;;
18899;SDS011;9582;52.018;6.306;2023-05-14T06:12:33;21.55;;;19.35;;
18899;SDS011;9582;52.018;6.306;2023-05-14T06:15:00;23.40;;;19.75;;
18899;SDS011;9582;52.018;6.306;2023-05-14T06:17:27;24.45;;;19.52;;
18899;SDS011;9582;52.018;6.306;2023-05-14T06:19:53;21.85;;;18.42;;
18899;SDS011;9582;52.018;6.306;2023-05-14T06:22:20;21.98;;;18.17;;
18899;SDS011;9582;52.018;6.306;2023-05-14T06:24:47;21.92;;;17.55;;
18899;SDS011;9582;52.018;6.306;2023-05-14T06:27:13;20.38;;;17.92;;
18899;SDS011;9582;52.018;6.306;2023-05-14T06:29:40;21.17;;;18.10;;
18899;SDS011;9582;52.018;6.306;2023-05-14T06:32:08;22.88;;;18.02;;
18899;SDS011;9582;52.018;6.306;2023-05-14T06:34:34;21.42;;;18.13;;
18899;SDS011;9582;52.018;6.306;2023-05-14T06:37:01;20.85;;;16.92;;
18899;SDS011;9582;52.018;6.306;2023-05-14T06:39:28;20.00;;;17.67;;
18899;SDS011;9582;52.018;6.306;2023-05-14T06:41:54;19.52;;;17.42;;
18899;SDS011;9582;52.018;6.306;2023-05-14T06:44:22;19.25;;;17.08;;
18899;SDS011;9582;52.018;6.306;2023-05-14T06:46:48;18.48;;;16.60;;
18899;SDS011;9582;52.018;6.306;2023-05-14T06:49:16;18.90;;;17.05;;
18899;SDS011;9582;52.018;6.306;2023-05-14T06:51:43;21.17;;;16.70;;
18899;SDS011;9582;52.018;6.306;2023-05-14T06:54:09;21.80;;;16.25;;
18899;SDS011;9582;52.018;6.306;2023-05-14T06:56:36;18.48;;;16.58;;
18899;SDS011;9582;52.018;6.306;2023-05-14T06:59:03;20.92;;;17.25;;
18899;SDS011;9582;52.018;6.306;2023-05-14T07:01:29;20.65;;;16.83;;
18899;SDS011;9582;52.018;6.306;2023-05-14T07:03:56;19.95;;;16.13;;
18899;SDS011;9582;52.018;6.306;2023-05-14T07:06:23;17.58;;;15.73;;
18899;SDS011;9582;52.018;6.306;2023-05-14T07:08:50;19.88;;;17.83;;
18899;SDS011;9582;52.018;6.306;2023-05-14T07:11:17;17.70;;;15.90;;
18899;SDS011;9582;52.018;6.306;2023-05-14T07:13:43;18.05;;;16.13;;
18899;SDS011;9582;52.018;6.306;2023-05-14T07:16:10;17.83;;;16.02;;
18899;SDS011;9582;52.018;6.306;2023-05-14T07:18:36;19.98;;;15.50;;
18899;SDS011;9582;52.018;6.306;2023-05-14T07:21:03;16.80;;;15.10;;
18899;SDS011;9582;52.018;6.306;2023-05-14T07:23:32;18.45;;;15.55;;
18899;SDS011;9582;52.018;6.306;2023-05-14T07:26:00;17.92;;;16.02;;
18899;SDS011;9582;52.018;6.306;2023-05-14T07:28:26;17.73;;;15.95;;
18899;SDS011;9582;52.018;6.306;2023-05-14T07:30:53;17.17;;;15.38;;
18899;SDS011;9582;52.018;6.306;2023-05-14T07:33:21;17.98;;;15.73;;
18899;SDS011;9582;52.018;6.306;2023-05-14T07:35:47;17.10;;;15.35;;
18899;SDS011;9582;52.018;6.306;2023-05-14T07:38:14;17.38;;;15.25;;
18899;SDS011;9582;52.018;6.306;2023-05-14T07:40:42;15.32;;;13.70;;
18899;SDS011;9582;52.018;6.306;2023-05-14T07:43:09;16.52;;;14.82;;
18899;SDS011;9582;52.018;6.306;2023-05-14T07:45:36;17.23;;;15.43;;
18899;SDS011;9582;52.018;6.306;2023-05-14T07:48:03;17.98;;;16.08;;
18899;SDS011;9582;52.018;6.306;2023-05-14T07:50:30;17.63;;;15.75;;
18899;SDS011;9582;52.018;6.306;2023-05-14T07:52:56;16.52;;;14.85;;
18899;SDS011;9582;52.018;6.306;2023-05-14T07:55:23;16.83;;;14.40;;
18899;SDS011;9582;52.018;6.306;2023-05-14T07:57:51;16.88;;;14.68;;
18899;SDS011;9582;52.018;6.306;2023-05-14T08:00:18;16.58;;;14.20;;
18899;SDS011;9582;52.018;6.306;2023-05-14T08:02:44;16.42;;;14.82;;
18899;SDS011;9582;52.018;6.306;2023-05-14T08:05:11;16.02;;;14.52;;
18899;SDS011;9582;52.018;6.306;2023-05-14T08:07:37;16.50;;;14.77;;
18899;SDS011;9582;52.018;6.306;2023-05-14T08:10:04;15.63;;;14.10;;
18899;SDS011;9582;52.018;6.306;2023-05-14T08:12:32;15.55;;;14.00;;
18899;SDS011;9582;52.018;6.306;2023-05-14T08:14:59;14.77;;;13.27;;
18899;SDS011;9582;52.018;6.306;2023-05-14T08:17:26;15.68;;;13.93;;
18899;SDS011;9582;52.018;6.306;2023-05-14T08:19:52;16.33;;;14.73;;
18899;SDS011;9582;52.018;6.306;2023-05-14T08:22:19;15.48;;;13.50;;
18899;SDS011;9582;52.018;6.306;2023-05-14T08:24:45;18.55;;;14.90;;
18899;SDS011;9582;52.018;6.306;2023-05-14T08:27:12;15.18;;;13.73;;
18899;SDS011;9582;52.018;6.306;2023-05-14T08:29:40;14.88;;;13.48;;
18899;SDS011;9582;52.018;6.306;2023-05-14T08:32:08;15.65;;;13.57;;
18899;SDS011;9582;52.018;6.306;2023-05-14T08:34:35;15.18;;;13.52;;
18899;SDS011;9582;52.018;6.306;2023-05-14T08:37:01;14.82;;;13.43;;
18899;SDS011;9582;52.018;6.306;2023-05-14T08:39:28;17.38;;;14.40;;
18899;SDS011;9582;52.018;6.306;2023-05-14T08:41:54;14.95;;;13.45;;
18899;SDS011;9582;52.018;6.306;2023-05-14T08:44:25;15.18;;;13.57;;
18899;SDS011;9582;52.018;6.306;2023-05-14T08:46:58;17.33;;;14.10;;
18899;SDS011;9582;52.018;6.306;2023-05-14T08:49:28;15.30;;;13.70;;
18899;SDS011;9582;52.018;6.306;2023-05-14T08:52:02;18.60;;;13.25;;
18899;SDS011;9582;52.018;6.306;2023-05-14T08:54:29;13.80;;;12.38;;
18899;SDS011;9582;52.018;6.306;2023-05-14T08:56:56;16.23;;;13.43;;
18899;SDS011;9582;52.018;6.306;2023-05-14T08:59:23;13.55;;;11.98;;
18899;SDS011;9582;52.018;6.306;2023-05-14T09:01:51;15.60;;;13.18;;
18899;SDS011;9582;52.018;6.306;2023-05-14T09:04:19;14.13;;;12.73;;
18899;SDS011;9582;52.018;6.306;2023-05-14T09:06:49;14.57;;;13.18;;
18899;SDS011;9582;52.018;6.306;2023-05-14T09:09:17;15.77;;;12.23;;
18899;SDS011;9582;52.018;6.306;2023-05-14T09:11:46;13.80;;;12.43;;
18899;SDS011;9582;52.018;6.306;2023-05-14T09:14:13;15.05;;;13.52;;
18899;SDS011;9582;52.018;6.306;2023-05-14T09:16:40;14.55;;;13.07;;
18899;SDS011;9582;52.018;6.306;2023-05-14T09:19:10;14.18;;;12.73;;
18899;SDS011;9582;52.018;6.306;2023-05-14T09:21:38;16.02;;;13.25;;
18899;SDS011;9582;52.018;6.306;2023-05-14T09:24:07;14.52;;;13.10;;
18899;SDS011;9582;52.018;6.306;2023-05-14T09:26:33;14.35;;;12.70;;
18899;SDS011;9582;52.018;6.306;2023-05-14T09:29:00;13.73;;;12.35;;
18899;SDS011;9582;52.018;6.306;2023-05-14T09:31:28;15.45;;;13.38;;
18899;SDS011;9582;52.018;6.306;2023-05-14T09:33:55;12.98;;;11.68;;
18899;SDS011;9582;52.018;6.306;2023-05-14T09:36:22;14.18;;;12.70;;
18899;SDS011;9582;52.018;6.306;2023-05-14T09:38:51;14.70;;;12.80;;
18899;SDS011;9582;52.018;6.306;2023-05-14T09:41:19;13.85;;;12.23;;
18899;SDS011;9582;52.018;6.306;2023-05-14T09:43:47;12.48;;;11.18;;
18899;SDS011;9582;52.018;6.306;2023-05-14T09:46:13;11.68;;;10.48;;
18899;SDS011;9582;52.018;6.306;2023-05-14T09:48:40;13.57;;;12.18;;
18899;SDS011;9582;52.018;6.306;2023-05-14T09:51:08;13.30;;;12.13;;
18899;SDS011;9582;52.018;6.306;2023-05-14T09:53:35;13.68;;;12.38;;
18899;SDS011;9582;52.018;6.306;2023-05-14T09:56:02;13.27;;;12.00;;
18899;SDS011;9582;52.018;6.306;2023-05-14T09:58:30;12.93;;;11.52;;
18899;SDS011;9582;52.018;6.306;2023-05-14T10:00:56;12.95;;;11.75;;
18899;SDS011;9582;52.018;6.306;2023-05-14T10:03:24;12.27;;;10.73;;
18899;SDS011;9582;52.018;6.306;2023-05-14T10:05:52;12.85;;;11.55;;
18899;SDS011;9582;52.018;6.306;2023-05-14T10:08:23;12.70;;;11.50;;
18899;SDS011;9582;52.018;6.306;2023-05-14T10:10:52;11.07;;;9.95;;
18899;SDS011;9582;52.018;6.306;2023-05-14T10:13:21;12.00;;;10.90;;
18899;SDS011;9582;52.018;6.306;2023-05-14T10:15:55;13.38;;;10.70;;
18899;SDS011;9582;52.018;6.306;2023-05-14T10:18:26;11.20;;;10.20;;
18899;SDS011;9582;52.018;6.306;2023-05-14T10:21:02;11.05;;;9.90;;
18899;SDS011;9582;52.018;6.306;2023-05-14T10:23:30;11.27;;;10.27;;
18899;SDS011;9582;52.018;6.306;2023-05-14T10:25:56;10.38;;;9.05;;
18899;SDS011;9582;52.018;6.306;2023-05-14T10:28:23;10.68;;;9.68;;
18899;SDS011;9582;52.018;6.306;2023-05-14T10:30:50;9.82;;;8.88;;
18899;SDS011;9582;52.018;6.306;2023-05-14T10:33:20;8.63;;;7.72;;
18899;SDS011;9582;52.018;6.306;2023-05-14T10:35:50;9.70;;;8.68;;
18899;SDS011;9582;52.018;6.306;2023-05-14T10:38:21;11.60;;;8.77;;
18899;SDS011;9582;52.018;6.306;2023-05-14T10:40:48;8.00;;;7.20;;
18899;SDS011;9582;52.018;6.306;2023-05-14T10:43:15;8.95;;;6.95;;
18899;SDS011;9582;52.018;6.306;2023-05-14T10:45:42;8.07;;;5.95;;
18899;SDS011;9582;52.018;6.306;2023-05-14T10:48:10;7.10;;;6.40;;
18899;SDS011;9582;52.018;6.306;2023-05-14T10:50:38;8.73;;;6.40;;
18899;SDS011;9582;52.018;6.306;2023-05-14T10:53:04;6.88;;;6.18;;
18899;SDS011;9582;52.018;6.306;2023-05-14T10:55:37;10.13;;;7.43;;
18899;SDS011;9582;52.018;6.306;2023-05-14T10:58:04;5.25;;;4.50;;
18899;SDS011;9582;52.018;6.306;2023-05-14T11:00:32;5.20;;;4.60;;
18899;SDS011;9582;52.018;6.306;2023-05-14T11:03:02;5.22;;;4.57;;
18899;SDS011;9582;52.018;6.306;2023-05-14T11:05:32;6.65;;;4.93;;
18899;SDS011;9582;52.018;6.306;2023-05-14T11:08:03;5.95;;;5.45;;
18899;SDS011;9582;52.018;6.306;2023-05-14T11:10:33;6.07;;;4.57;;
18899;SDS011;9582;52.018;6.306;2023-05-14T11:13:00;5.30;;;3.90;;
18899;SDS011;9582;52.018;6.306;2023-05-14T11:15:27;6.57;;;5.60;;
18899;SDS011;9582;52.018;6.306;2023-05-14T11:17:53;5.40;;;4.90;;
18899;SDS011;9582;52.018;6.306;2023-05-14T11:20:20;6.32;;;5.07;;
18899;SDS011;9582;52.018;6.306;2023-05-14T11:22:47;7.43;;;5.20;;
18899;SDS011;9582;52.018;6.306;2023-05-14T11:25:16;6.82;;;5.00;;
18899;SDS011;9582;52.018;6.306;2023-05-14T11:27:43;5.32;;;4.82;;
18899;SDS011;9582;52.018;6.306;2023-05-14T11:30:11;5.05;;;4.53;;
18899;SDS011;9582;52.018;6.306;2023-05-14T11:32:39;9.25;;;4.15;;
18899;SDS011;9582;52.018;6.306;2023-05-14T11:35:06;5.13;;;3.60;;
18899;SDS011;9582;52.018;6.306;2023-05-14T11:37:33;4.55;;;3.95;;
18899;SDS011;9582;52.018;6.306;2023-05-14T11:39:59;8.15;;;4.90;;
18899;SDS011;9582;52.018;6.306;2023-05-14T11:42:28;7.07;;;6.43;;
18899;SDS011;9582;52.018;6.306;2023-05-14T11:44:54;8.15;;;7.32;;
18899;SDS011;9582;52.018;6.306;2023-05-14T11:47:21;7.65;;;6.75;;
18899;SDS011;9582;52.018;6.306;2023-05-14T11:49:47;7.55;;;6.85;;
18899;SDS011;9582;52.018;6.306;2023-05-14T11:52:15;7.50;;;6.80;;
18899;SDS011;9582;52.018;6.306;2023-05-14T11:54:43;6.72;;;6.03;;
18899;SDS011;9582;52.018;6.306;2023-05-14T11:57:10;6.60;;;5.50;;
18899;SDS011;9582;52.018;6.306;2023-05-14T11:59:39;6.93;;;6.32;;
18899;SDS011;9582;52.018;6.306;2023-05-14T12:02:07;7.70;;;6.65;;
18899;SDS011;9582;52.018;6.306;2023-05-14T12:04:35;6.25;;;5.07;;
18899;SDS011;9582;52.018;6.306;2023-05-14T12:07:06;3.80;;;3.45;;
18899;SDS011;9582;52.018;6.306;2023-05-14T12:09:34;6.65;;;3.67;;
18899;SDS011;9582;52.018;6.306;2023-05-14T12:12:06;4.97;;;3.80;;
18899;SDS011;9582;52.018;6.306;2023-05-14T12:14:35;5.40;;;3.65;;
18899;SDS011;9582;52.018;6.306;2023-05-14T12:17:04;5.45;;;3.50;;
18899;SDS011;9582;52.018;6.306;2023-05-14T12:19:38;4.85;;;3.33;;
18899;SDS011;9582;52.018;6.306;2023-05-14T12:22:06;3.45;;;3.10;;
18899;SDS011;9582;52.018;6.306;2023-05-14T12:24:33;4.47;;;3.60;;
18899;SDS011;9582;52.018;6.306;2023-05-14T12:27:00;4.30;;;3.90;;
18899;SDS011;9582;52.018;6.306;2023-05-14T12:29:27;5.78;;;4.10;;
18899;SDS011;9582;52.018;6.306;2023-05-14T12:31:56;4.70;;;4.20;;
18899;SDS011;9582;52.018;6.306;2023-05-14T12:34:24;4.32;;;3.92;;
18899;SDS011;9582;52.018;6.306;2023-05-14T12:36:51;5.70;;;3.80;;
18899;SDS011;9582;52.018;6.306;2023-05-14T12:39:17;5.40;;;4.40;;
18899;SDS011;9582;52.018;6.306;2023-05-14T12:41:45;5.22;;;4.68;;
18899;SDS011;9582;52.018;6.306;2023-05-14T12:44:11;7.90;;;6.90;;
18899;SDS011;9582;52.018;6.306;2023-05-14T12:46:38;7.97;;;6.55;;
18899;SDS011;9582;52.018;6.306;2023-05-14T12:49:04;5.40;;;4.90;;
18899;SDS011;9582;52.018;6.306;2023-05-14T12:51:32;7.28;;;6.35;;
18899;SDS011;9582;52.018;6.306;2023-05-14T12:53:59;6.85;;;6.18;;
18899;SDS011;9582;52.018;6.306;2023-05-14T12:56:25;7.38;;;6.70;;
18899;SDS011;9582;52.018;6.306;2023-05-14T12:58:53;6.50;;;5.45;;
18899;SDS011;9582;52.018;6.306;2023-05-14T13:01:20;6.13;;;5.53;;
18899;SDS011;9582;52.018;6.306;2023-05-14T13:03:47;6.55;;;4.57;;
18899;SDS011;9582;52.018;6.306;2023-05-14T13:06:13;4.78;;;4.30;;
18899;SDS011;9582;52.018;6.306;2023-05-14T13:08:42;5.65;;;5.15;;
18899;SDS011;9582;52.018;6.306;2023-05-14T13:11:08;8.13;;;5.22;;
18899;SDS011;9582;52.018;6.306;2023-05-14T13:13:35;6.90;;;5.38;;
18899;SDS011;9582;52.018;6.306;2023-05-14T13:16:01;5.75;;;4.82;;
18899;SDS011;9582;52.018;6.306;2023-05-14T13:18:28;7.80;;;4.10;;
18899;SDS011;9582;52.018;6.306;2023-05-14T13:20:55;7.10;;;4.57;;
18899;SDS011;9582;52.018;6.306;2023-05-14T13:23:21;5.88;;;4.13;;
18899;SDS011;9582;52.018;6.306;2023-05-14T13:25:49;4.40;;;4.00;;
18899;SDS011;9582;52.018;6.306;2023-05-14T13:28:16;5.38;;;3.75;;
18899;SDS011;9582;52.018;6.306;2023-05-14T13:30:43;4.03;;;3.67;;
18899;SDS011;9582;52.018;6.306;2023-05-14T13:33:29;5.90;;;3.95;;
18899;SDS011;9582;52.018;6.306;2023-05-14T13:35:55;4.40;;;3.20;;
18899;SDS011;9582;52.018;6.306;2023-05-14T13:38:21;4.82;;;3.28;;
18899;SDS011;9582;52.018;6.306;2023-05-14T13:40:49;3.47;;;3.00;;
18899;SDS011;9582;52.018;6.306;2023-05-14T13:43:16;3.05;;;2.85;;
18899;SDS011;9582;52.018;6.306;2023-05-14T13:45:42;3.10;;;2.80;;
18899;SDS011;9582;52.018;6.306;2023-05-14T13:48:09;3.78;;;2.88;;
18899;SDS011;9582;52.018;6.306;2023-05-14T13:50:35;3.85;;;2.95;;
18899;SDS011;9582;52.018;6.306;2023-05-14T13:53:02;4.63;;;3.00;;
18899;SDS011;9582;52.018;6.306;2023-05-14T13:55:28;3.38;;;3.17;;
18899;SDS011;9582;52.018;6.306;2023-05-14T13:57:56;4.68;;;3.72;;
18899;SDS011;9582;52.018;6.306;2023-05-14T14:00:23;3.53;;;3.17;;
18899;SDS011;9582;52.018;6.306;2023-05-14T14:02:51;5.53;;;3.30;;
18899;SDS011;9582;52.018;6.306;2023-05-14T14:05:17;3.03;;;2.72;;
18899;SDS011;9582;52.018;6.306;2023-05-14T14:07:44;4.13;;;3.15;;
18899;SDS011;9582;52.018;6.306;2023-05-14T14:10:11;5.45;;;3.03;;
18899;SDS011;9582;52.018;6.306;2023-05-14T14:12:37;3.83;;;2.90;;
18899;SDS011;9582;52.018;6.306;2023-05-14T14:15:06;3.83;;;2.88;;
18899;SDS011;9582;52.018;6.306;2023-05-14T14:17:33;3.65;;;2.90;;
18899;SDS011;9582;52.018;6.306;2023-05-14T14:20:00;3.38;;;2.95;;
18899;SDS011;9582;52.018;6.306;2023-05-14T14:22:29;3.83;;;3.53;;
18899;SDS011;9582;52.018;6.306;2023-05-14T14:24:56;5.07;;;4.28;;
18899;SDS011;9582;52.018;6.306;2023-05-14T14:27:23;5.40;;;4.28;;
18899;SDS011;9582;52.018;6.306;2023-05-14T14:29:50;5.57;;;4.35;;
18899;SDS011;9582;52.018;6.306;2023-05-14T14:32:18;4.70;;;4.07;;
18899;SDS011;9582;52.018;6.306;2023-05-14T14:34:44;4.80;;;4.28;;
18899;SDS011;9582;52.018;6.306;2023-05-14T14:37:11;5.50;;;4.97;;
18899;SDS011;9582;52.018;6.306;2023-05-14T14:39:38;5.75;;;4.25;;
18899;SDS011;9582;52.018;6.306;2023-05-14T14:42:05;5.03;;;3.70;;
18899;SDS011;9582;52.018;6.306;2023-05-14T14:44:32;5.18;;;4.15;;